Belgica — ORGQ — position and weather

sailwx.info

Track history (hours):
 
Tides and Currents Weather Stations Pressure Air Temp Water Temp Dewpoint Dewpoint Depression Visibility Wind Speed Wind Dir Waves Ship Positions

Oceanographic research ship Belgica (Belgium)

Detailed information on ship capabilities available from University of Delaware's Ocean Information Center.

Last reported at 2018-Dec-18 10:18 UTC. Time now 2018-Dec-18 10:59 UTC.
Position N 51°34' E 002°60'.

Length 51 m; draft 4.7 m.

MMSI: 205218000.

Date/timePositionNaut miles runAvg speedWind from/ knotsBaromVisibWave heightAir tempDewpointWater temp
2018-Dec-18 10:18N 51°34' E 002°60'1 4.8
2018-Dec-18 10:00N 51°34' E 002°58'2 3.9
2018-Dec-18 09:27N 51°33' E 002°55'1 2.4
2018-Dec-18 08:59N 51°32' E 002°56'4 7.7
2018-Dec-18 08:27N 51°28' E 002°52'4 6.5
2018-Dec-18 07:52N 51°27' E 002°46'3 5.0
2018-Dec-18 07:20N 51°28' E 002°49'0 0.3
2018-Dec-18 06:57N 51°28' E 002°49'0 0.5
2018-Dec-18 06:24N 51°28' E 002°49'1 1.0
2018-Dec-18 05:52N 51°28' E 002°49'1 1.8
2018-Dec-18 05:25N 51°29' E 002°50'1 2.1
2018-Dec-18 04:50N 51°28' E 002°48'3 3.3
2018-Dec-18 03:59N 51°25' E 002°48'4 6.2
2018-Dec-18 03:17N 51°27' E 002°42'3 8.5
2018-Dec-18 02:59N 51°26' E 002°38'5 8.4
2018-Dec-18 02:21N 51°26' E 002°29'4 8.6
2018-Dec-18 01:56N 51°27' E 002°24'2 4.3
2018-Dec-18 01:30N 51°28' E 002°21'4 8.7
2018-Dec-18 01:00N 51°25' E 002°26'5 9.6
2018-Dec-18 00:29N 51°20' E 002°30'5 9.7
2018-Dec-17 23:59N 51°16' E 002°33'4 8.1
2018-Dec-17 23:26N 51°12' E 002°37'3 4.6
2018-Dec-17 22:49N 51°10' E 002°40'3 8.4
2018-Dec-17 22:25N 51°11' E 002°45'4 8.5
2018-Dec-17 22:00N 51°13' E 002°50'3 5.3
2018-Dec-17 21:30N 51°15' E 002°52'1 1.7
2018-Dec-17 21:01N 51°15' E 002°51'0 0.3
2018-Dec-17 20:30N 51°15' E 002°51'4 7.2
2018-Dec-17 20:00N 51°18' E 002°54'4 7.7
2018-Dec-17 19:30N 51°20' E 002°59'4 7.7
2018-Dec-17 19:00N 51°21' E 003°05'1 2.3
2018-Dec-17 18:30N 51°22' E 003°07'0 0.9
2018-Dec-17 18:01N 51°22' E 003°06'1 1.5
2018-Dec-17 17:31N 51°22' E 003°07'1 2.8
2018-Dec-17 17:00N 51°22' E 003°10'1 2.4
2018-Dec-17 16:30N 51°23' E 003°11'2 4.5
2018-Dec-17 16:00N 51°20' E 003°12'0 0.1
2018-Dec-17 15:29N 51°20' E 003°12'0 0.0
2018-Dec-17 14:59N 51°20' E 003°12'0 0.0
2018-Dec-17 14:26N 51°20' E 003°12'0 0.0
2018-Dec-17 13:59N 51°20' E 003°12'0 0.0
2018-Dec-17 13:17N 51°20' E 003°12'0 0.0
2018-Dec-17 12:59N 51°20' E 003°12'0 0.0
2018-Dec-17 12:29N 51°20' E 003°12'0 0.0
2018-Dec-17 11:59N 51°20' E 003°12'0 0.0
2018-Dec-17 11:29N 51°20' E 003°12'0 0.0
2018-Dec-17 10:59N 51°20' E 003°12'0 0.0
2018-Dec-17 10:20N 51°20' E 003°12'0 0.0
2018-Dec-17 09:56N 51°20' E 003°12'0 0.0
2018-Dec-17 09:29N 51°20' E 003°12'0 0.0
2018-Dec-17 08:59N 51°20' E 003°12'0 0.0
2018-Dec-17 08:29N 51°20' E 003°12'  
2018-Dec-14 07:28N 51°20' E 003°12'2 3.4
2018-Dec-14 07:00N 51°22' E 003°11'2 5.0
2018-Dec-14 06:30N 51°21' E 003°08'3 6.0
2018-Dec-14 06:00N 51°21' E 003°03'3 5.5
2018-Dec-14 05:30N 51°20' E 002°59'3 5.3
2018-Dec-14 04:58N 51°19' E 002°54'2 4.7
2018-Dec-14 04:30N 51°17' E 002°52'3 5.4
2018-Dec-14 04:00N 51°15' E 002°54'6 6.5
2018-Dec-14 03:00N 51°11' E 002°45'4 6.7
2018-Dec-14 02:28N 51°10' E 002°40'2 4.2
2018-Dec-14 01:58N 51°12' E 002°37'3 5.6
2018-Dec-14 01:30N 51°14' E 002°40'3 5.7
2018-Dec-14 01:00N 51°17' E 002°41'2 3.2
2018-Dec-14 00:17N 51°19' E 002°39'3 5.4
2018-Dec-13 23:45N 51°21' E 002°36'3 6.1
2018-Dec-13 23:18N 51°22' E 002°32'2 5.6
2018-Dec-13 22:59N 51°21' E 002°29'3 5.9
2018-Dec-13 22:29N 51°20' E 002°25'3 6.1
2018-Dec-13 21:56N 51°18' E 002°20'3 6.8
2018-Dec-13 21:28N 51°18' E 002°15'8 6.8
2018-Dec-13 20:17N 51°21' E 002°04'3 8.0
2018-Dec-13 19:55N 51°23' E 001°60'3 7.9
2018-Dec-13 19:30N 51°24' E 001°55'4 7.9
2018-Dec-13 19:00N 51°26' E 001°50'4 7.9
2018-Dec-13 18:30N 51°29' E 001°45'4 7.9
2018-Dec-13 18:00N 51°31' E 001°40'3 5.1
2018-Dec-13 17:30N 51°32' E 001°36'2 4.7
2018-Dec-13 17:00N 51°33' E 001°32'2 3.1
2018-Dec-13 16:30N 51°32' E 001°34'2 3.8
2018-Dec-13 16:00N 51°33' E 001°32'2 3.4
2018-Dec-13 15:30N 51°32' E 001°34'1 1.1
2018-Dec-13 15:00N 51°32' E 001°34'1 1.1
2018-Dec-13 14:30N 51°33' E 001°33'1 1.7
2018-Dec-13 14:00N 51°32' E 001°34'1 2.8
2018-Dec-13 13:31N 51°33' E 001°32'2 3.6
2018-Dec-13 13:00N 51°31' E 001°34'2 3.7
2018-Dec-13 12:30N 51°33' E 001°31'1 3.0
2018-Dec-13 12:00N 51°31' E 001°32'1 1.4
2018-Dec-13 11:30N 51°32' E 001°33'1 1.9
2018-Dec-13 11:00N 51°33' E 001°32'2 3.9
2018-Dec-13 10:31N 51°31' E 001°34'1 1.8
2018-Dec-13 10:00N 51°32' E 001°34'1 1.0
2018-Dec-13 09:30N 51°32' E 001°34'2 3.7
2018-Dec-13 09:01N 51°33' E 001°32'2 3.7
2018-Dec-13 08:30N 51°32' E 001°34'1 1.4
2018-Dec-13 08:00N 51°32' E 001°34'1 1.6
2018-Dec-13 07:30N 51°33' E 001°34'1 2.9
2018-Dec-13 07:00N 51°32' E 001°35'2 3.4
2018-Dec-13 06:30N 51°33' E 001°34'1 2.5
2018-Dec-13 06:00N 51°33' E 001°35'1 2.7
2018-Dec-13 05:30N 51°31' E 001°35'1 1.9
2018-Dec-13 05:00N 51°32' E 001°34'1 2.9
2018-Dec-13 04:31N 51°33' E 001°33'1 2.5
2018-Dec-13 04:00N 51°33' E 001°35'1 2.5
2018-Dec-13 03:30N 51°32' E 001°35'1 1.5
2018-Dec-13 03:00N 51°32' E 001°35'1 2.0
2018-Dec-13 02:30N 51°33' E 001°34'1 2.6
2018-Dec-13 02:00N 51°32' E 001°34'3 5.7
2018-Dec-13 01:30N 51°29' E 001°35'2 3.1
2018-Dec-13 01:00N 51°29' E 001°37'1 2.5
2018-Dec-13 00:30N 51°30' E 001°37'2 4.3
2018-Dec-13 00:00N 51°32' E 001°35'1 1.5
2018-Dec-12 23:30N 51°33' E 001°34'1 2.6
2018-Dec-12 23:00N 51°33' E 001°33'2 3.3
2018-Dec-12 22:30N 51°31' E 001°32'3 5.9
2018-Dec-12 22:00N 51°29' E 001°34'3 6.6
2018-Dec-12 21:30N 51°25' E 001°35'4 7.5
2018-Dec-12 21:00N 51°23' E 001°39'1 3.0
2018-Dec-12 20:30N 51°22' E 001°41'2 3.9
2018-Dec-12 20:00N 51°24' E 001°42'1 1.4
2018-Dec-12 19:30N 51°23' E 001°41'2 3.8
2018-Dec-12 19:00N 51°21' E 001°41'4 7.3
2018-Dec-12 18:30N 51°18' E 001°39'510.2
2018-Dec-12 18:00N 51°13' E 001°35'510.1
2018-Dec-12 17:30N 51°09' E 001°31'510.4
2018-Dec-12 17:00N 51°06' E 001°25'510.8
2018-Dec-12 16:30N 51°02' E 001°19'510.9
2018-Dec-12 16:00N 50°58' E 001°12'510.7
2018-Dec-12 15:30N 50°55' E 001°06'510.8
2018-Dec-12 15:00N 50°52' E 000°59'510.5
2018-Dec-12 14:30N 50°49' E 000°52'2 4.4
2018-Dec-12 14:00N 50°47' E 000°49'2 4.0
2018-Dec-12 13:30N 50°48' E 000°52'1 2.6
2018-Dec-12 13:00N 50°49' E 000°50'2 3.8
2018-Dec-12 12:30N 50°48' E 000°48'2 4.0
2018-Dec-12 12:00N 50°47' E 000°46'2 3.7
2018-Dec-12 11:30N 50°46' E 000°43'2 3.4
2018-Dec-12 11:00N 50°47' E 000°41'2 3.3
2018-Dec-12 10:30N 50°48' E 000°40'1 1.2
2018-Dec-12 10:00N 50°48' E 000°40'1 1.2
2018-Dec-12 09:30N 50°47' E 000°39'1 2.1
2018-Dec-12 09:00N 50°47' E 000°37'1 2.4
2018-Dec-12 08:30N 50°47' E 000°36'1 2.2
2018-Dec-12 08:00N 50°46' E 000°34'1 2.0
2018-Dec-12 07:30N 50°46' E 000°33'1 1.9
2018-Dec-12 07:00N 50°45' E 000°32'1 1.8
2018-Dec-12 06:30N 50°45' E 000°30'1 1.7
2018-Dec-12 06:00N 50°44' E 000°29'1 1.6
2018-Dec-12 05:30N 50°44' E 000°28'1 1.6
2018-Dec-12 05:00N 50°43' E 000°27'1 1.5
2018-Dec-12 04:30N 50°43' E 000°26'1 1.3
2018-Dec-12 04:00N 50°43' E 000°25'1 1.5
2018-Dec-12 03:30N 50°43' E 000°24'1 1.6
2018-Dec-12 03:00N 50°42' E 000°23'1 1.4
2018-Dec-12 02:30N 50°42' E 000°22'1 2.1
2018-Dec-12 02:00N 50°42' E 000°21'3 5.7
2018-Dec-12 01:30N 50°39' E 000°19'2 3.4
2018-Dec-12 01:00N 50°37' E 000°18'1 2.1
2018-Dec-12 00:30N 50°38' E 000°16'2 3.5
2018-Dec-12 00:00N 50°38' E 000°13'2 3.6
2018-Dec-11 23:30N 50°38' E 000°11'2 4.0
2018-Dec-11 23:00N 50°38' E 000°08'2 3.9
2018-Dec-11 22:30N 50°39' E 000°05'2 4.1
2018-Dec-11 21:55N 50°39' E 000°01'11 0.9
2018-Dec-11 10:31N 50°38' W 000°15'11 3.9
2018-Dec-11 07:47N 50°39' E 000°01'4 4.8
2018-Dec-11 06:53N 50°38' W 000°05'11 0.6
2018-Dec-10 12:04N 50°48' W 000°14'1 9.2
2018-Dec-10 12:00N 50°48' W 000°15'2 3.3
2018-Dec-10 11:30N 50°50' W 000°14'0 0.3
2018-Dec-10 11:00N 50°50' W 000°14'0 0.0
2018-Dec-10 10:30N 50°50' W 000°14'0 0.0
2018-Dec-10 10:00N 50°50' W 000°14'0 0.0
2018-Dec-10 09:30N 50°50' W 000°14'0 0.0
2018-Dec-10 09:00N 50°50' W 000°14'0 0.0
2018-Dec-10 08:30N 50°50' W 000°14'0 0.0
2018-Dec-10 07:59N 50°50' W 000°14'0 0.0
2018-Dec-10 07:29N 50°50' W 000°14'0 0.0
2018-Dec-10 06:59N 50°50' W 000°14'0 0.0
2018-Dec-10 06:29N 50°50' W 000°14'0 0.0
2018-Dec-10 05:59N 50°50' W 000°14'0 0.0
2018-Dec-10 05:29N 50°50' W 000°14'0 0.0
2018-Dec-10 04:59N 50°50' W 000°14'0 0.0
2018-Dec-10 04:29N 50°50' W 000°14'0 0.0
2018-Dec-10 03:59N 50°50' W 000°14'0 0.0
2018-Dec-10 02:59N 50°50' W 000°14'0 0.0
2018-Dec-10 02:29N 50°50' W 000°14'0 0.0
2018-Dec-10 01:59N 50°50' W 000°14'0 0.0
2018-Dec-10 01:29N 50°50' W 000°14'0 0.0
2018-Dec-10 00:59N 50°50' W 000°14'0 0.0
2018-Dec-10 00:29N 50°50' W 000°14'0 0.0
2018-Dec-09 23:59N 50°50' W 000°14'0 0.0
2018-Dec-09 23:29N 50°50' W 000°14'0 0.0
2018-Dec-09 22:59N 50°50' W 000°14'0 0.0
2018-Dec-09 22:29N 50°50' W 000°14'0 0.0
2018-Dec-09 21:59N 50°50' W 000°14'0 0.0
2018-Dec-09 21:29N 50°50' W 000°14'0 0.0
2018-Dec-09 20:59N 50°50' W 000°14'0 0.0
2018-Dec-09 20:29N 50°50' W 000°14'0 0.0
2018-Dec-09 19:59N 50°50' W 000°14'0 0.0
2018-Dec-09 19:29N 50°50' W 000°14'0 0.0
2018-Dec-09 18:59N 50°50' W 000°14'0 0.0
2018-Dec-09 18:29N 50°50' W 000°14'0 0.0
2018-Dec-09 17:59N 50°50' W 000°14'0 0.0
2018-Dec-09 17:29N 50°50' W 000°14'0 0.0
2018-Dec-09 16:59N 50°50' W 000°14'0 0.0
2018-Dec-09 16:29N 50°50' W 000°14'0 0.0
2018-Dec-09 15:59N 50°50' W 000°14'0 0.0
2018-Dec-09 15:29N 50°50' W 000°14'0 0.0
2018-Dec-09 14:59N 50°50' W 000°14'0 0.0
2018-Dec-09 14:29N 50°50' W 000°14'0 0.0
2018-Dec-09 13:59N 50°50' W 000°14'0 0.0
2018-Dec-09 13:29N 50°50' W 000°14'0 0.0
2018-Dec-09 12:59N 50°50' W 000°14'0 0.0
2018-Dec-09 12:29N 50°50' W 000°14'0 0.0
2018-Dec-09 11:59N 50°50' W 000°14'0 0.0
2018-Dec-09 11:29N 50°50' W 000°14'0 0.0
2018-Dec-09 10:59N 50°50' W 000°14'0 0.0
2018-Dec-09 10:29N 50°50' W 000°14'0 0.0
2018-Dec-09 09:59N 50°50' W 000°14'0 0.0
2018-Dec-09 09:29N 50°50' W 000°14'0 0.0
2018-Dec-09 08:59N 50°50' W 000°14'0 0.0
2018-Dec-09 08:29N 50°50' W 000°14'0 0.0
2018-Dec-09 07:56N 50°50' W 000°14'0 0.0
2018-Dec-09 07:29N 50°50' W 000°14'0 0.0
2018-Dec-09 06:59N 50°50' W 000°14'0 0.0
2018-Dec-09 06:29N 50°50' W 000°14'0 0.0
2018-Dec-09 05:59N 50°50' W 000°14'0 0.0
2018-Dec-09 05:29N 50°50' W 000°14'0 0.0
2018-Dec-09 04:59N 50°50' W 000°14'0 0.0
2018-Dec-09 04:29N 50°50' W 000°14'0 0.0
2018-Dec-09 03:59N 50°50' W 000°14'0 0.0
2018-Dec-09 03:29N 50°50' W 000°14'0 0.0
2018-Dec-09 02:59N 50°50' W 000°14'0 0.0
2018-Dec-09 02:29N 50°50' W 000°14'0 0.0
2018-Dec-09 01:59N 50°50' W 000°14'0 0.0
2018-Dec-09 01:29N 50°50' W 000°14'0 0.0
2018-Dec-09 00:59N 50°50' W 000°14'0 0.0
2018-Dec-09 00:29N 50°50' W 000°14'0 0.0
2018-Dec-08 23:59N 50°50' W 000°14'0 0.0
2018-Dec-08 23:29N 50°50' W 000°14'0 0.0
2018-Dec-08 22:59N 50°50' W 000°14'0 0.0
2018-Dec-08 22:29N 50°50' W 000°14'0 0.0
2018-Dec-08 21:59N 50°50' W 000°14'0 0.0
2018-Dec-08 21:29N 50°50' W 000°14'0 0.0
2018-Dec-08 20:58N 50°50' W 000°14'0 0.0
2018-Dec-08 20:28N 50°50' W 000°14'0 0.0
2018-Dec-08 19:58N 50°50' W 000°14'0 0.0
2018-Dec-08 19:28N 50°50' W 000°14'0 0.0
2018-Dec-08 18:58N 50°50' W 000°14'0 0.0
2018-Dec-08 18:28N 50°50' W 000°14'0 0.0
2018-Dec-08 17:58N 50°50' W 000°14'0 0.0
2018-Dec-08 17:28N 50°50' W 000°14'0 0.0
2018-Dec-08 16:58N 50°50' W 000°14'0 0.0
2018-Dec-08 16:28N 50°50' W 000°14'0 0.0
2018-Dec-08 15:58N 50°50' W 000°14'0 0.0
2018-Dec-08 15:28N 50°50' W 000°14'0 0.0
2018-Dec-08 14:58N 50°50' W 000°14'0 0.0
2018-Dec-08 14:28N 50°50' W 000°14'0 0.0
2018-Dec-08 13:58N 50°50' W 000°14'0 0.0
2018-Dec-08 13:28N 50°50' W 000°14'0 0.0
2018-Dec-08 12:58N 50°50' W 000°14'0 0.0
2018-Dec-08 12:28N 50°50' W 000°14'0 0.0
2018-Dec-08 11:58N 50°50' W 000°14'0 0.0
2018-Dec-08 11:28N 50°50' W 000°14'0 0.0
2018-Dec-08 10:58N 50°50' W 000°14'0 0.0
2018-Dec-08 10:28N 50°50' W 000°14'  
Track history (hours):
 
Tides and Currents Weather Stations Pressure Air Temp Water Temp Dewpoint Dewpoint Depression Visibility Wind Speed Wind Dir Waves Ship Positions

Oceanographic research ship Belgica (Belgium)

Detailed information on ship capabilities available from University of Delaware's Ocean Information Center.

Last reported at 2018-Dec-18 10:18 UTC. Time now 2018-Dec-18 10:59 UTC.
Position N 51°34' E 002°60'.

Length 51 m; draft 4.7 m.

MMSI: 205218000.

Date/timePositionNaut miles runAvg speedWind from/ knotsBaromVisibWave heightAir tempDewpointWater temp
2018-Dec-18 10:18N 51°34' E 002°60'1 4.8
2018-Dec-18 10:00N 51°34' E 002°58'2 3.9
2018-Dec-18 09:27N 51°33' E 002°55'1 2.4
2018-Dec-18 08:59N 51°32' E 002°56'4 7.7
2018-Dec-18 08:27N 51°28' E 002°52'4 6.5
2018-Dec-18 07:52N 51°27' E 002°46'3 5.0
2018-Dec-18 07:20N 51°28' E 002°49'0 0.3
2018-Dec-18 06:57N 51°28' E 002°49'0 0.5
2018-Dec-18 06:24N 51°28' E 002°49'1 1.0
2018-Dec-18 05:52N 51°28' E 002°49'1 1.8
2018-Dec-18 05:25N 51°29' E 002°50'1 2.1
2018-Dec-18 04:50N 51°28' E 002°48'3 3.3
2018-Dec-18 03:59N 51°25' E 002°48'4 6.2
2018-Dec-18 03:17N 51°27' E 002°42'3 8.5
2018-Dec-18 02:59N 51°26' E 002°38'5 8.4
2018-Dec-18 02:21N 51°26' E 002°29'4 8.6
2018-Dec-18 01:56N 51°27' E 002°24'2 4.3
2018-Dec-18 01:30N 51°28' E 002°21'4 8.7
2018-Dec-18 01:00N 51°25' E 002°26'5 9.6
2018-Dec-18 00:29N 51°20' E 002°30'5 9.7
2018-Dec-17 23:59N 51°16' E 002°33'4 8.1
2018-Dec-17 23:26N 51°12' E 002°37'3 4.6
2018-Dec-17 22:49N 51°10' E 002°40'3 8.4
2018-Dec-17 22:25N 51°11' E 002°45'4 8.5
2018-Dec-17 22:00N 51°13' E 002°50'3 5.3
2018-Dec-17 21:30N 51°15' E 002°52'1 1.7
2018-Dec-17 21:01N 51°15' E 002°51'0 0.3
2018-Dec-17 20:30N 51°15' E 002°51'4 7.2
2018-Dec-17 20:00N 51°18' E 002°54'4 7.7
2018-Dec-17 19:30N 51°20' E 002°59'4 7.7
2018-Dec-17 19:00N 51°21' E 003°05'1 2.3
2018-Dec-17 18:30N 51°22' E 003°07'0 0.9
2018-Dec-17 18:01N 51°22' E 003°06'1 1.5
2018-Dec-17 17:31N 51°22' E 003°07'1 2.8
2018-Dec-17 17:00N 51°22' E 003°10'1 2.4
2018-Dec-17 16:30N 51°23' E 003°11'2 4.5
2018-Dec-17 16:00N 51°20' E 003°12'0 0.1
2018-Dec-17 15:29N 51°20' E 003°12'0 0.0
2018-Dec-17 14:59N 51°20' E 003°12'0 0.0
2018-Dec-17 14:26N 51°20' E 003°12'0 0.0
2018-Dec-17 13:59N 51°20' E 003°12'0 0.0
2018-Dec-17 13:17N 51°20' E 003°12'0 0.0
2018-Dec-17 12:59N 51°20' E 003°12'0 0.0
2018-Dec-17 12:29N 51°20' E 003°12'0 0.0
2018-Dec-17 11:59N 51°20' E 003°12'0 0.0
2018-Dec-17 11:29N 51°20' E 003°12'0 0.0
2018-Dec-17 10:59N 51°20' E 003°12'0 0.0
2018-Dec-17 10:20N 51°20' E 003°12'0 0.0
2018-Dec-17 09:56N 51°20' E 003°12'0 0.0
2018-Dec-17 09:29N 51°20' E 003°12'0 0.0
2018-Dec-17 08:59N 51°20' E 003°12'0 0.0
2018-Dec-17 08:29N 51°20' E 003°12'  
2018-Dec-14 07:28N 51°20' E 003°12'2 3.4
2018-Dec-14 07:00N 51°22' E 003°11'2 5.0
2018-Dec-14 06:30N 51°21' E 003°08'3 6.0
2018-Dec-14 06:00N 51°21' E 003°03'3 5.5
2018-Dec-14 05:30N 51°20' E 002°59'3 5.3
2018-Dec-14 04:58N 51°19' E 002°54'2 4.7
2018-Dec-14 04:30N 51°17' E 002°52'3 5.4
2018-Dec-14 04:00N 51°15' E 002°54'6 6.5
2018-Dec-14 03:00N 51°11' E 002°45'4 6.7
2018-Dec-14 02:28N 51°10' E 002°40'2 4.2
2018-Dec-14 01:58N 51°12' E 002°37'3 5.6
2018-Dec-14 01:30N 51°14' E 002°40'3 5.7
2018-Dec-14 01:00N 51°17' E 002°41'2 3.2
2018-Dec-14 00:17N 51°19' E 002°39'3 5.4
2018-Dec-13 23:45N 51°21' E 002°36'3 6.1
2018-Dec-13 23:18N 51°22' E 002°32'2 5.6
2018-Dec-13 22:59N 51°21' E 002°29'3 5.9
2018-Dec-13 22:29N 51°20' E 002°25'3 6.1
2018-Dec-13 21:56N 51°18' E 002°20'3 6.8
2018-Dec-13 21:28N 51°18' E 002°15'8 6.8
2018-Dec-13 20:17N 51°21' E 002°04'3 8.0
2018-Dec-13 19:55N 51°23' E 001°60'3 7.9
2018-Dec-13 19:30N 51°24' E 001°55'4 7.9
2018-Dec-13 19:00N 51°26' E 001°50'4 7.9
2018-Dec-13 18:30N 51°29' E 001°45'4 7.9
2018-Dec-13 18:00N 51°31' E 001°40'3 5.1
2018-Dec-13 17:30N 51°32' E 001°36'2 4.7
2018-Dec-13 17:00N 51°33' E 001°32'2 3.1
2018-Dec-13 16:30N 51°32' E 001°34'2 3.8
2018-Dec-13 16:00N 51°33' E 001°32'2 3.4
2018-Dec-13 15:30N 51°32' E 001°34'1 1.1
2018-Dec-13 15:00N 51°32' E 001°34'1 1.1
2018-Dec-13 14:30N 51°33' E 001°33'1 1.7
2018-Dec-13 14:00N 51°32' E 001°34'1 2.8
2018-Dec-13 13:31N 51°33' E 001°32'2 3.6
2018-Dec-13 13:00N 51°31' E 001°34'2 3.7
2018-Dec-13 12:30N 51°33' E 001°31'1 3.0
2018-Dec-13 12:00N 51°31' E 001°32'1 1.4
2018-Dec-13 11:30N 51°32' E 001°33'1 1.9
2018-Dec-13 11:00N 51°33' E 001°32'2 3.9
2018-Dec-13 10:31N 51°31' E 001°34'1 1.8
2018-Dec-13 10:00N 51°32' E 001°34'1 1.0
2018-Dec-13 09:30N 51°32' E 001°34'2 3.7
2018-Dec-13 09:01N 51°33' E 001°32'2 3.7
2018-Dec-13 08:30N 51°32' E 001°34'1 1.4
2018-Dec-13 08:00N 51°32' E 001°34'1 1.6
2018-Dec-13 07:30N 51°33' E 001°34'1 2.9
2018-Dec-13 07:00N 51°32' E 001°35'2 3.4
2018-Dec-13 06:30N 51°33' E 001°34'1 2.5
2018-Dec-13 06:00N 51°33' E 001°35'1 2.7
2018-Dec-13 05:30N 51°31' E 001°35'1 1.9
2018-Dec-13 05:00N 51°32' E 001°34'1 2.9
2018-Dec-13 04:31N 51°33' E 001°33'1 2.5
2018-Dec-13 04:00N 51°33' E 001°35'1 2.5
2018-Dec-13 03:30N 51°32' E 001°35'1 1.5
2018-Dec-13 03:00N 51°32' E 001°35'1 2.0
2018-Dec-13 02:30N 51°33' E 001°34'1 2.6
2018-Dec-13 02:00N 51°32' E 001°34'3 5.7
2018-Dec-13 01:30N 51°29' E 001°35'2 3.1
2018-Dec-13 01:00N 51°29' E 001°37'1 2.5
2018-Dec-13 00:30N 51°30' E 001°37'2 4.3
2018-Dec-13 00:00N 51°32' E 001°35'1 1.5
2018-Dec-12 23:30N 51°33' E 001°34'1 2.6
2018-Dec-12 23:00N 51°33' E 001°33'2 3.3
2018-Dec-12 22:30N 51°31' E 001°32'3 5.9
2018-Dec-12 22:00N 51°29' E 001°34'3 6.6
2018-Dec-12 21:30N 51°25' E 001°35'4 7.5
2018-Dec-12 21:00N 51°23' E 001°39'1 3.0
2018-Dec-12 20:30N 51°22' E 001°41'2 3.9
2018-Dec-12 20:00N 51°24' E 001°42'1 1.4
2018-Dec-12 19:30N 51°23' E 001°41'2 3.8
2018-Dec-12 19:00N 51°21' E 001°41'4 7.3
2018-Dec-12 18:30N 51°18' E 001°39'510.2
2018-Dec-12 18:00N 51°13' E 001°35'510.1
2018-Dec-12 17:30N 51°09' E 001°31'510.4
2018-Dec-12 17:00N 51°06' E 001°25'510.8
2018-Dec-12 16:30N 51°02' E 001°19'510.9
2018-Dec-12 16:00N 50°58' E 001°12'510.7
2018-Dec-12 15:30N 50°55' E 001°06'510.8
2018-Dec-12 15:00N 50°52' E 000°59'510.5
2018-Dec-12 14:30N 50°49' E 000°52'2 4.4
2018-Dec-12 14:00N 50°47' E 000°49'2 4.0
2018-Dec-12 13:30N 50°48' E 000°52'1 2.6
2018-Dec-12 13:00N 50°49' E 000°50'2 3.8
2018-Dec-12 12:30N 50°48' E 000°48'2 4.0
2018-Dec-12 12:00N 50°47' E 000°46'2 3.7
2018-Dec-12 11:30N 50°46' E 000°43'2 3.4
2018-Dec-12 11:00N 50°47' E 000°41'2 3.3
2018-Dec-12 10:30N 50°48' E 000°40'1 1.2
2018-Dec-12 10:00N 50°48' E 000°40'1 1.2
2018-Dec-12 09:30N 50°47' E 000°39'1 2.1
2018-Dec-12 09:00N 50°47' E 000°37'1 2.4
2018-Dec-12 08:30N 50°47' E 000°36'1 2.2
2018-Dec-12 08:00N 50°46' E 000°34'1 2.0
2018-Dec-12 07:30N 50°46' E 000°33'1 1.9
2018-Dec-12 07:00N 50°45' E 000°32'1 1.8
2018-Dec-12 06:30N 50°45' E 000°30'1 1.7
2018-Dec-12 06:00N 50°44' E 000°29'1 1.6
2018-Dec-12 05:30N 50°44' E 000°28'1 1.6
2018-Dec-12 05:00N 50°43' E 000°27'1 1.5
2018-Dec-12 04:30N 50°43' E 000°26'1 1.3
2018-Dec-12 04:00N 50°43' E 000°25'1 1.5
2018-Dec-12 03:30N 50°43' E 000°24'1 1.6
2018-Dec-12 03:00N 50°42' E 000°23'1 1.4
2018-Dec-12 02:30N 50°42' E 000°22'1 2.1
2018-Dec-12 02:00N 50°42' E 000°21'3 5.7
2018-Dec-12 01:30N 50°39' E 000°19'2 3.4
2018-Dec-12 01:00N 50°37' E 000°18'1 2.1
2018-Dec-12 00:30N 50°38' E 000°16'2 3.5
2018-Dec-12 00:00N 50°38' E 000°13'2 3.6
2018-Dec-11 23:30N 50°38' E 000°11'2 4.0
2018-Dec-11 23:00N 50°38' E 000°08'2 3.9
2018-Dec-11 22:30N 50°39' E 000°05'2 4.1
2018-Dec-11 21:55N 50°39' E 000°01'11 0.9
2018-Dec-11 10:31N 50°38' W 000°15'11 3.9
2018-Dec-11 07:47N 50°39' E 000°01'4 4.8
2018-Dec-11 06:53N 50°38' W 000°05'11 0.6
2018-Dec-10 12:04N 50°48' W 000°14'1 9.2
2018-Dec-10 12:00N 50°48' W 000°15'2 3.3
2018-Dec-10 11:30N 50°50' W 000°14'0 0.3
2018-Dec-10 11:00N 50°50' W 000°14'0 0.0
2018-Dec-10 10:30N 50°50' W 000°14'0 0.0
2018-Dec-10 10:00N 50°50' W 000°14'0 0.0
2018-Dec-10 09:30N 50°50' W 000°14'0 0.0
2018-Dec-10 09:00N 50°50' W 000°14'0 0.0
2018-Dec-10 08:30N 50°50' W 000°14'0 0.0
2018-Dec-10 07:59N 50°50' W 000°14'0 0.0
2018-Dec-10 07:29N 50°50' W 000°14'0 0.0
2018-Dec-10 06:59N 50°50' W 000°14'0 0.0
2018-Dec-10 06:29N 50°50' W 000°14'0 0.0
2018-Dec-10 05:59N 50°50' W 000°14'0 0.0
2018-Dec-10 05:29N 50°50' W 000°14'0 0.0
2018-Dec-10 04:59N 50°50' W 000°14'0 0.0
2018-Dec-10 04:29N 50°50' W 000°14'0 0.0
2018-Dec-10 03:59N 50°50' W 000°14'0 0.0
2018-Dec-10 02:59N 50°50' W 000°14'0 0.0
2018-Dec-10 02:29N 50°50' W 000°14'0 0.0
2018-Dec-10 01:59N 50°50' W 000°14'0 0.0
2018-Dec-10 01:29N 50°50' W 000°14'0 0.0
2018-Dec-10 00:59N 50°50' W 000°14'0 0.0
2018-Dec-10 00:29N 50°50' W 000°14'0 0.0
2018-Dec-09 23:59N 50°50' W 000°14'0 0.0
2018-Dec-09 23:29N 50°50' W 000°14'0 0.0
2018-Dec-09 22:59N 50°50' W 000°14'0 0.0
2018-Dec-09 22:29N 50°50' W 000°14'0 0.0
2018-Dec-09 21:59N 50°50' W 000°14'0 0.0
2018-Dec-09 21:29N 50°50' W 000°14'0 0.0
2018-Dec-09 20:59N 50°50' W 000°14'0 0.0
2018-Dec-09 20:29N 50°50' W 000°14'0 0.0
2018-Dec-09 19:59N 50°50' W 000°14'0 0.0
2018-Dec-09 19:29N 50°50' W 000°14'0 0.0
2018-Dec-09 18:59N 50°50' W 000°14'0 0.0
2018-Dec-09 18:29N 50°50' W 000°14'0 0.0
2018-Dec-09 17:59N 50°50' W 000°14'0 0.0
2018-Dec-09 17:29N 50°50' W 000°14'0 0.0
2018-Dec-09 16:59N 50°50' W 000°14'0 0.0
2018-Dec-09 16:29N 50°50' W 000°14'0 0.0
2018-Dec-09 15:59N 50°50' W 000°14'0 0.0
2018-Dec-09 15:29N 50°50' W 000°14'0 0.0
2018-Dec-09 14:59N 50°50' W 000°14'0 0.0
2018-Dec-09 14:29N 50°50' W 000°14'0 0.0
2018-Dec-09 13:59N 50°50' W 000°14'0 0.0
2018-Dec-09 13:29N 50°50' W 000°14'0 0.0
2018-Dec-09 12:59N 50°50' W 000°14'0 0.0
2018-Dec-09 12:29N 50°50' W 000°14'0 0.0
2018-Dec-09 11:59N 50°50' W 000°14'0 0.0
2018-Dec-09 11:29N 50°50' W 000°14'0 0.0
2018-Dec-09 10:59N 50°50' W 000°14'0 0.0
2018-Dec-09 10:29N 50°50' W 000°14'0 0.0
2018-Dec-09 09:59N 50°50' W 000°14'0 0.0
2018-Dec-09 09:29N 50°50' W 000°14'0 0.0
2018-Dec-09 08:59N 50°50' W 000°14'0 0.0
2018-Dec-09 08:29N 50°50' W 000°14'0 0.0
2018-Dec-09 07:56N 50°50' W 000°14'0 0.0
2018-Dec-09 07:29N 50°50' W 000°14'0 0.0
2018-Dec-09 06:59N 50°50' W 000°14'0 0.0
2018-Dec-09 06:29N 50°50' W 000°14'0 0.0
2018-Dec-09 05:59N 50°50' W 000°14'0 0.0
2018-Dec-09 05:29N 50°50' W 000°14'0 0.0
2018-Dec-09 04:59N 50°50' W 000°14'0 0.0
2018-Dec-09 04:29N 50°50' W 000°14'0 0.0
2018-Dec-09 03:59N 50°50' W 000°14'0 0.0
2018-Dec-09 03:29N 50°50' W 000°14'0 0.0
2018-Dec-09 02:59N 50°50' W 000°14'0 0.0
2018-Dec-09 02:29N 50°50' W 000°14'0 0.0
2018-Dec-09 01:59N 50°50' W 000°14'0 0.0
2018-Dec-09 01:29N 50°50' W 000°14'0 0.0
2018-Dec-09 00:59N 50°50' W 000°14'0 0.0
2018-Dec-09 00:29N 50°50' W 000°14'0 0.0
2018-Dec-08 23:59N 50°50' W 000°14'0 0.0
2018-Dec-08 23:29N 50°50' W 000°14'0 0.0
2018-Dec-08 22:59N 50°50' W 000°14'0 0.0
2018-Dec-08 22:29N 50°50' W 000°14'0 0.0
2018-Dec-08 21:59N 50°50' W 000°14'0 0.0
2018-Dec-08 21:29N 50°50' W 000°14'0 0.0
2018-Dec-08 20:58N 50°50' W 000°14'0 0.0
2018-Dec-08 20:28N 50°50' W 000°14'0 0.0
2018-Dec-08 19:58N 50°50' W 000°14'0 0.0
2018-Dec-08 19:28N 50°50' W 000°14'0 0.0
2018-Dec-08 18:58N 50°50' W 000°14'0 0.0
2018-Dec-08 18:28N 50°50' W 000°14'0 0.0
2018-Dec-08 17:58N 50°50' W 000°14'0 0.0
2018-Dec-08 17:28N 50°50' W 000°14'0 0.0
2018-Dec-08 16:58N 50°50' W 000°14'0 0.0
2018-Dec-08 16:28N 50°50' W 000°14'0 0.0
2018-Dec-08 15:58N 50°50' W 000°14'0 0.0
2018-Dec-08 15:28N 50°50' W 000°14'0 0.0
2018-Dec-08 14:58N 50°50' W 000°14'0 0.0
2018-Dec-08 14:28N 50°50' W 000°14'0 0.0
2018-Dec-08 13:58N 50°50' W 000°14'0 0.0
2018-Dec-08 13:28N 50°50' W 000°14'0 0.0
2018-Dec-08 12:58N 50°50' W 000°14'0 0.0
2018-Dec-08 12:28N 50°50' W 000°14'0 0.0
2018-Dec-08 11:58N 50°50' W 000°14'0 0.0
2018-Dec-08 11:28N 50°50' W 000°14'0 0.0
2018-Dec-08 10:58N 50°50' W 000°14'0 0.0
2018-Dec-08 10:28N 50°50' W 000°14'  

Dump ship's entire track history